sensor_id;sensor_type;location;lat;lon;timestamp;pressure;altitude;pressure_sealevel;temperature;humidity
41264;BME280;26998;48.714;9.414;2022-08-19T00:01:29;98257.44;;;20.04;100.00
41264;BME280;26998;48.714;9.414;2022-08-19T00:04:00;98247.41;;;20.04;100.00
41264;BME280;26998;48.714;9.414;2022-08-19T00:06:28;98249.28;;;19.99;100.00
41264;BME280;26998;48.714;9.414;2022-08-19T00:08:55;98259.88;;;19.90;100.00
41264;BME280;26998;48.714;9.414;2022-08-19T00:11:22;98253.69;;;19.84;100.00
41264;BME280;26998;48.714;9.414;2022-08-19T00:13:51;98261.00;;;19.74;100.00
41264;BME280;26998;48.714;9.414;2022-08-19T00:16:17;98262.34;;;19.76;100.00
41264;BME280;26998;48.714;9.414;2022-08-19T00:18:50;98250.41;;;19.77;100.00
41264;BME280;26998;48.714;9.414;2022-08-19T00:21:17;98246.63;;;19.78;100.00
41264;BME280;26998;48.714;9.414;2022-08-19T00:23:43;98249.88;;;19.80;100.00
41264;BME280;26998;48.714;9.414;2022-08-19T00:26:10;98260.16;;;19.83;100.00
41264;BME280;26998;48.714;9.414;2022-08-19T00:28:37;98247.41;;;19.84;100.00
41264;BME280;26998;48.714;9.414;2022-08-19T00:31:04;98241.72;;;19.86;100.00
41264;BME280;26998;48.714;9.414;2022-08-19T00:33:31;98231.69;;;19.81;100.00
41264;BME280;26998;48.714;9.414;2022-08-19T00:35:59;98228.72;;;19.82;100.00
41264;BME280;26998;48.714;9.414;2022-08-19T00:38:26;98219.22;;;19.75;100.00
41264;BME280;26998;48.714;9.414;2022-08-19T00:41:02;98223.00;;;19.84;100.00
41264;BME280;26998;48.714;9.414;2022-08-19T00:43:29;98221.91;;;19.90;99.43
41264;BME280;26998;48.714;9.414;2022-08-19T00:45:55;98223.81;;;19.95;97.23
41264;BME280;26998;48.714;9.414;2022-08-19T00:48:22;98231.41;;;19.98;97.97
41264;BME280;26998;48.714;9.414;2022-08-19T00:50:49;98236.84;;;19.98;100.00
41264;BME280;26998;48.714;9.414;2022-08-19T00:53:19;98238.47;;;19.83;100.00
41264;BME280;26998;48.714;9.414;2022-08-19T00:55:46;98240.38;;;19.68;100.00
41264;BME280;26998;48.714;9.414;2022-08-19T00:58:18;98235.22;;;19.61;100.00
41264;BME280;26998;48.714;9.414;2022-08-19T01:00:45;98244.16;;;19.56;100.00
41264;BME280;26998;48.714;9.414;2022-08-19T01:03:13;98248.75;;;19.61;100.00
41264;BME280;26998;48.714;9.414;2022-08-19T01:05:41;98244.16;;;19.61;100.00
41264;BME280;26998;48.714;9.414;2022-08-19T01:08:08;98239.53;;;19.62;100.00
41264;BME280;26998;48.714;9.414;2022-08-19T01:10:37;98249.84;;;19.50;100.00
41264;BME280;26998;48.714;9.414;2022-08-19T01:13:04;98250.91;;;19.44;100.00
41264;BME280;26998;48.714;9.414;2022-08-19T01:15:32;98242.53;;;19.30;100.00
41264;BME280;26998;48.714;9.414;2022-08-19T01:18:00;98250.38;;;19.31;100.00
41264;BME280;26998;48.714;9.414;2022-08-19T01:20:27;98244.16;;;19.36;100.00
41264;BME280;26998;48.714;9.414;2022-08-19T01:22:55;98249.28;;;19.37;100.00
41264;BME280;26998;48.714;9.414;2022-08-19T01:25:24;98242.81;;;19.38;100.00
41264;BME280;26998;48.714;9.414;2022-08-19T01:27:54;98230.31;;;19.37;100.00
41264;BME280;26998;48.714;9.414;2022-08-19T01:30:32;98239.00;;;19.39;100.00
41264;BME280;26998;48.714;9.414;2022-08-19T01:32:59;98231.44;;;19.42;100.00
41264;BME280;26998;48.714;9.414;2022-08-19T01:35:27;98229.53;;;19.42;100.00
41264;BME280;26998;48.714;9.414;2022-08-19T01:37:55;98228.19;;;19.45;100.00
41264;BME280;26998;48.714;9.414;2022-08-19T01:40:23;98234.66;;;19.44;100.00
41264;BME280;26998;48.714;9.414;2022-08-19T01:42:50;98241.16;;;19.43;100.00
41264;BME280;26998;48.714;9.414;2022-08-19T01:45:17;98237.91;;;19.41;100.00
41264;BME280;26998;48.714;9.414;2022-08-19T01:47:44;98233.31;;;19.41;100.00
41264;BME280;26998;48.714;9.414;2022-08-19T01:50:27;98223.84;;;19.38;100.00
41264;BME280;26998;48.714;9.414;2022-08-19T01:52:54;98222.19;;;19.37;100.00
41264;BME280;26998;48.714;9.414;2022-08-19T01:55:31;98223.56;;;19.40;100.00
41264;BME280;26998;48.714;9.414;2022-08-19T01:57:58;98214.34;;;19.41;100.00
41264;BME280;26998;48.714;9.414;2022-08-19T02:00:28;98217.59;;;19.43;100.00
41264;BME280;26998;48.714;9.414;2022-08-19T02:02:55;98225.19;;;19.46;100.00
41264;BME280;26998;48.714;9.414;2022-08-19T02:05:22;98229.25;;;19.44;100.00
41264;BME280;26998;48.714;9.414;2022-08-19T02:07:49;98237.38;;;19.33;100.00
41264;BME280;26998;48.714;9.414;2022-08-19T02:10:20;98234.41;;;19.30;100.00
41264;BME280;26998;48.714;9.414;2022-08-19T02:12:47;98233.59;;;19.29;100.00
41264;BME280;26998;48.714;9.414;2022-08-19T02:15:15;98234.41;;;19.30;100.00
41264;BME280;26998;48.714;9.414;2022-08-19T02:17:41;98231.66;;;19.25;100.00
41264;BME280;26998;48.714;9.414;2022-08-19T02:20:08;98247.66;;;19.21;100.00
41264;BME280;26998;48.714;9.414;2022-08-19T02:22:35;98241.16;;;19.17;100.00
41264;BME280;26998;48.714;9.414;2022-08-19T02:25:02;98241.94;;;19.12;100.00
41264;BME280;26998;48.714;9.414;2022-08-19T02:27:28;98255.78;;;19.11;100.00
41264;BME280;26998;48.714;9.414;2022-08-19T02:29:55;98244.94;;;19.11;100.00
41264;BME280;26998;48.714;9.414;2022-08-19T02:32:21;98243.84;;;19.12;100.00
41264;BME280;26998;48.714;9.414;2022-08-19T02:34:48;98235.47;;;19.13;100.00
41264;BME280;26998;48.714;9.414;2022-08-19T02:37:14;98230.84;;;19.14;100.00
41264;BME280;26998;48.714;9.414;2022-08-19T02:39:41;98232.75;;;19.13;100.00
41264;BME280;26998;48.714;9.414;2022-08-19T02:42:07;98237.09;;;19.14;100.00
41264;BME280;26998;48.714;9.414;2022-08-19T02:44:34;98230.31;;;19.12;100.00
41264;BME280;26998;48.714;9.414;2022-08-19T02:47:00;98234.09;;;19.21;100.00
41264;BME280;26998;48.714;9.414;2022-08-19T02:49:27;98232.19;;;19.11;100.00
41264;BME280;26998;48.714;9.414;2022-08-19T02:51:53;98219.19;;;19.03;100.00
41264;BME280;26998;48.714;9.414;2022-08-19T02:54:20;98234.09;;;19.01;100.00
41264;BME280;26998;48.714;9.414;2022-08-19T02:56:47;98236.22;;;18.93;100.00
41264;BME280;26998;48.714;9.414;2022-08-19T02:59:14;98244.06;;;18.90;100.00
41264;BME280;26998;48.714;9.414;2022-08-19T03:01:41;98231.09;;;18.92;100.00
41264;BME280;26998;48.714;9.414;2022-08-19T03:04:09;98243.78;;;18.86;100.00
41264;BME280;26998;48.714;9.414;2022-08-19T03:06:37;98247.28;;;18.77;100.00
41264;BME280;26998;48.714;9.414;2022-08-19T03:09:04;98260.25;;;18.75;100.00
41264;BME280;26998;48.714;9.414;2022-08-19T03:11:31;98271.88;;;18.70;100.00
41264;BME280;26998;48.714;9.414;2022-08-19T03:13:58;98266.47;;;18.70;100.00
41264;BME280;26998;48.714;9.414;2022-08-19T03:16:26;98265.09;;;18.67;100.00
41264;BME280;26998;48.714;9.414;2022-08-19T03:18:53;98261.81;;;18.65;100.00
41264;BME280;26998;48.714;9.414;2022-08-19T03:21:21;98268.13;;;18.76;100.00
41264;BME280;26998;48.714;9.414;2022-08-19T03:23:48;98271.09;;;18.75;100.00
41264;BME280;26998;48.714;9.414;2022-08-19T03:26:14;98270.75;;;18.61;100.00
41264;BME280;26998;48.714;9.414;2022-08-19T03:28:43;98269.38;;;18.58;100.00
41264;BME280;26998;48.714;9.414;2022-08-19T03:31:24;98260.19;;;18.59;100.00
41264;BME280;26998;48.714;9.414;2022-08-19T03:34:15;98270.72;;;18.56;100.00
41264;BME280;26998;48.714;9.414;2022-08-19T03:36:42;98273.19;;;18.57;100.00
41264;BME280;26998;48.714;9.414;2022-08-19T03:39:09;98278.31;;;18.59;100.00
41264;BME280;26998;48.714;9.414;2022-08-19T03:41:36;98274.22;;;18.56;100.00
41264;BME280;26998;48.714;9.414;2022-08-19T03:44:14;98265.31;;;18.56;100.00
41264;BME280;26998;48.714;9.414;2022-08-19T03:46:44;98262.88;;;18.59;100.00
41264;BME280;26998;48.714;9.414;2022-08-19T03:49:10;98260.19;;;18.54;100.00
41264;BME280;26998;48.714;9.414;2022-08-19T03:51:40;98264.25;;;18.57;100.00
41264;BME280;26998;48.714;9.414;2022-08-19T03:54:08;98265.31;;;18.56;100.00
41264;BME280;26998;48.714;9.414;2022-08-19T03:56:36;98272.38;;;18.57;100.00
41264;BME280;26998;48.714;9.414;2022-08-19T03:59:03;98274.00;;;18.58;100.00
41264;BME280;26998;48.714;9.414;2022-08-19T04:01:30;98274.78;;;18.58;100.00
41264;BME280;26998;48.714;9.414;2022-08-19T04:04:00;98263.94;;;18.53;100.00
41264;BME280;26998;48.714;9.414;2022-08-19T04:06:31;98266.38;;;18.50;100.00
41264;BME280;26998;48.714;9.414;2022-08-19T04:08:58;98260.69;;;18.51;100.00
41264;BME280;26998;48.714;9.414;2022-08-19T04:11:26;98257.19;;;18.51;100.00
41264;BME280;26998;48.714;9.414;2022-08-19T04:14:10;98266.66;;;18.53;100.00
41264;BME280;26998;48.714;9.414;2022-08-19T04:16:37;98263.16;;;18.58;100.00
41264;BME280;26998;48.714;9.414;2022-08-19T04:19:04;98258.03;;;18.61;100.00
41264;BME280;26998;48.714;9.414;2022-08-19T04:21:32;98253.97;;;18.64;100.00
41264;BME280;26998;48.714;9.414;2022-08-19T04:23:59;98248.81;;;18.62;100.00
41264;BME280;26998;48.714;9.414;2022-08-19T04:26:27;98256.41;;;18.60;100.00
41264;BME280;26998;48.714;9.414;2022-08-19T04:28:54;98252.06;;;18.59;100.00
41264;BME280;26998;48.714;9.414;2022-08-19T04:31:22;98246.41;;;18.61;100.00
41264;BME280;26998;48.714;9.414;2022-08-19T04:33:49;98242.34;;;18.63;100.00
41264;BME280;26998;48.714;9.414;2022-08-19T04:36:17;98247.22;;;18.66;100.00
41264;BME280;26998;48.714;9.414;2022-08-19T04:38:49;98239.09;;;18.72;100.00
41264;BME280;26998;48.714;9.414;2022-08-19T04:41:16;98232.94;;;18.76;100.00
41264;BME280;26998;48.714;9.414;2022-08-19T04:43:43;98235.66;;;18.81;100.00
41264;BME280;26998;48.714;9.414;2022-08-19T04:46:11;98232.41;;;18.84;100.00
41264;BME280;26998;48.714;9.414;2022-08-19T04:48:58;98230.56;;;18.95;100.00
41264;BME280;26998;48.714;9.414;2022-08-19T04:51:35;98238.94;;;18.99;100.00
41264;BME280;26998;48.714;9.414;2022-08-19T04:54:02;98232.19;;;19.01;100.00
41264;BME280;26998;48.714;9.414;2022-08-19T04:56:29;98241.97;;;19.07;100.00
41264;BME280;26998;48.714;9.414;2022-08-19T04:58:56;98239.78;;;19.09;100.00
41264;BME280;26998;48.714;9.414;2022-08-19T05:01:23;98248.75;;;19.10;100.00
41264;BME280;26998;48.714;9.414;2022-08-19T05:03:50;98257.38;;;19.12;100.00
41264;BME280;26998;48.714;9.414;2022-08-19T05:06:18;98261.72;;;19.18;100.00
41264;BME280;26998;48.714;9.414;2022-08-19T05:08:45;98269.88;;;19.13;100.00
41264;BME280;26998;48.714;9.414;2022-08-19T05:11:14;98276.91;;;19.14;100.00
41264;BME280;26998;48.714;9.414;2022-08-19T05:13:41;98283.94;;;19.15;100.00
41264;BME280;26998;48.714;9.414;2022-08-19T05:16:08;98297.72;;;19.03;100.00
41264;BME280;26998;48.714;9.414;2022-08-19T05:18:35;98299.06;;;18.96;100.00
41264;BME280;26998;48.714;9.414;2022-08-19T05:21:05;98315.28;;;18.90;100.00
41264;BME280;26998;48.714;9.414;2022-08-19T05:23:32;98316.94;;;18.91;100.00
41264;BME280;26998;48.714;9.414;2022-08-19T05:25:58;98323.97;;;18.92;100.00
41264;BME280;26998;48.714;9.414;2022-08-19T05:28:25;98335.06;;;18.91;100.00
41264;BME280;26998;48.714;9.414;2022-08-19T05:30:51;98345.91;;;18.91;100.00
41264;BME280;26998;48.714;9.414;2022-08-19T05:33:18;98345.09;;;18.96;100.00
41264;BME280;26998;48.714;9.414;2022-08-19T05:35:44;98345.94;;;19.01;100.00
41264;BME280;26998;48.714;9.414;2022-08-19T05:38:11;98347.00;;;18.95;100.00
41264;BME280;26998;48.714;9.414;2022-08-19T05:40:38;98351.63;;;19.05;100.00
41264;BME280;26998;48.714;9.414;2022-08-19T05:43:06;98348.38;;;19.08;100.00
41264;BME280;26998;48.714;9.414;2022-08-19T05:45:37;98343.81;;;19.13;100.00
41264;BME280;26998;48.714;9.414;2022-08-19T05:48:03;98342.47;;;19.16;100.00
41264;BME280;26998;48.714;9.414;2022-08-19T05:50:30;98346.25;;;19.20;100.00
41264;BME280;26998;48.714;9.414;2022-08-19T05:52:57;98337.59;;;19.23;100.00
41264;BME280;26998;48.714;9.414;2022-08-19T05:55:23;98335.16;;;19.27;100.00
41264;BME280;26998;48.714;9.414;2022-08-19T05:57:50;98328.66;;;19.23;100.00
41264;BME280;26998;48.714;9.414;2022-08-19T06:00:17;98336.78;;;19.23;100.00
41264;BME280;26998;48.714;9.414;2022-08-19T06:02:49;98339.75;;;19.21;100.00
41264;BME280;26998;48.714;9.414;2022-08-19T06:05:18;98334.91;;;19.28;100.00
41264;BME280;26998;48.714;9.414;2022-08-19T06:07:45;98340.88;;;19.41;100.00
41264;BME280;26998;48.714;9.414;2022-08-19T06:10:11;98330.63;;;19.48;99.26
41264;BME280;26998;48.714;9.414;2022-08-19T06:12:38;98340.38;;;19.54;99.05
41264;BME280;26998;48.714;9.414;2022-08-19T06:15:06;98331.44;;;19.48;99.48
41264;BME280;26998;48.714;9.414;2022-08-19T06:17:33;98339.81;;;19.47;100.00
41264;BME280;26998;48.714;9.414;2022-08-19T06:20:00;98336.03;;;19.48;100.00
41264;BME280;26998;48.714;9.414;2022-08-19T06:22:27;98331.44;;;19.53;100.00
41264;BME280;26998;48.714;9.414;2022-08-19T06:24:54;98345.25;;;19.52;100.00
41264;BME280;26998;48.714;9.414;2022-08-19T06:27:21;98349.88;;;19.51;100.00
41264;BME280;26998;48.714;9.414;2022-08-19T06:29:47;98345.50;;;19.45;100.00
41264;BME280;26998;48.714;9.414;2022-08-19T06:32:15;98357.16;;;19.35;100.00
41264;BME280;26998;48.714;9.414;2022-08-19T06:34:42;98353.06;;;19.33;100.00
41264;BME280;26998;48.714;9.414;2022-08-19T06:37:08;98354.94;;;19.27;100.00
41264;BME280;26998;48.714;9.414;2022-08-19T06:39:37;98356.28;;;19.25;100.00
41264;BME280;26998;48.714;9.414;2022-08-19T06:42:05;98353.06;;;19.23;100.00
41264;BME280;26998;48.714;9.414;2022-08-19T06:44:33;98360.38;;;19.22;100.00
41264;BME280;26998;48.714;9.414;2022-08-19T06:47:08;98357.66;;;19.22;100.00
41264;BME280;26998;48.714;9.414;2022-08-19T06:49:48;98363.59;;;19.19;100.00
41264;BME280;26998;48.714;9.414;2022-08-19T06:52:15;98364.69;;;19.23;100.00
41264;BME280;26998;48.714;9.414;2022-08-19T06:54:41;98366.56;;;19.18;100.00
41264;BME280;26998;48.714;9.414;2022-08-19T06:57:22;98363.88;;;19.23;100.00
41264;BME280;26998;48.714;9.414;2022-08-19T06:59:48;98362.25;;;19.22;100.00
41264;BME280;26998;48.714;9.414;2022-08-19T07:02:15;98368.19;;;19.19;100.00
41264;BME280;26998;48.714;9.414;2022-08-19T07:04:46;98363.88;;;19.23;100.00
41264;BME280;26998;48.714;9.414;2022-08-19T07:07:18;98370.38;;;19.22;100.00
41264;BME280;26998;48.714;9.414;2022-08-19T07:09:47;98363.06;;;19.22;100.00
41264;BME280;26998;48.714;9.414;2022-08-19T07:12:25;98363.63;;;19.29;100.00
41264;BME280;26998;48.714;9.414;2022-08-19T07:14:52;98365.78;;;19.27;100.00
41264;BME280;26998;48.714;9.414;2022-08-19T07:17:19;98364.44;;;19.30;100.00
41264;BME280;26998;48.714;9.414;2022-08-19T07:19:46;98369.31;;;19.33;100.00
41264;BME280;26998;48.714;9.414;2022-08-19T07:22:14;98369.56;;;19.31;100.00
41264;BME280;26998;48.714;9.414;2022-08-19T07:24:42;98373.94;;;19.32;100.00
41264;BME280;26998;48.714;9.414;2022-08-19T07:27:16;98375.31;;;19.35;100.00
41264;BME280;26998;48.714;9.414;2022-08-19T07:29:50;98374.50;;;19.45;100.00
41264;BME280;26998;48.714;9.414;2022-08-19T07:32:22;98376.09;;;19.41;100.00
41264;BME280;26998;48.714;9.414;2022-08-19T07:34:50;98380.72;;;19.40;100.00
41264;BME280;26998;48.714;9.414;2022-08-19T07:37:17;98378.59;;;19.47;100.00
41264;BME280;26998;48.714;9.414;2022-08-19T07:39:43;98385.63;;;19.48;100.00
41264;BME280;26998;48.714;9.414;2022-08-19T07:42:11;98375.06;;;19.52;100.00
41264;BME280;26998;48.714;9.414;2022-08-19T07:44:39;98380.75;;;19.55;100.00
41264;BME280;26998;48.714;9.414;2022-08-19T07:47:11;98381.56;;;19.51;100.00
41264;BME280;26998;48.714;9.414;2022-08-19T07:49:57;98384.81;;;19.53;100.00
41264;BME280;26998;48.714;9.414;2022-08-19T07:52:24;98385.91;;;19.52;100.00
41264;BME280;26998;48.714;9.414;2022-08-19T07:54:50;98382.38;;;19.51;100.00
41264;BME280;26998;48.714;9.414;2022-08-19T07:57:17;98379.94;;;19.45;100.00
41264;BME280;26998;48.714;9.414;2022-08-19T07:59:44;98387.78;;;19.41;100.00
41264;BME280;26998;48.714;9.414;2022-08-19T08:02:11;98378.84;;;19.46;100.00
41264;BME280;26998;48.714;9.414;2022-08-19T08:04:37;98384.78;;;19.43;100.00
41264;BME280;26998;48.714;9.414;2022-08-19T08:07:04;98380.75;;;19.45;100.00
41264;BME280;26998;48.714;9.414;2022-08-19T08:09:33;98382.63;;;19.39;100.00
41264;BME280;26998;48.714;9.414;2022-08-19T08:12:11;98389.69;;;19.46;100.00
41264;BME280;26998;48.714;9.414;2022-08-19T08:15:00;98386.41;;;19.38;100.00
41264;BME280;26998;48.714;9.414;2022-08-19T08:17:27;98390.22;;;19.43;100.00
41264;BME280;26998;48.714;9.414;2022-08-19T08:20:14;98384.78;;;19.43;100.00
41264;BME280;26998;48.714;9.414;2022-08-19T08:22:44;98394.00;;;19.42;100.00
41264;BME280;26998;48.714;9.414;2022-08-19T08:25:15;98391.81;;;19.33;100.00
41264;BME280;26998;48.714;9.414;2022-08-19T08:27:43;98388.53;;;19.31;100.00
41264;BME280;26998;48.714;9.414;2022-08-19T08:30:12;98389.38;;;19.37;100.00
41264;BME280;26998;48.714;9.414;2022-08-19T08:32:40;98391.00;;;19.33;100.00
41264;BME280;26998;48.714;9.414;2022-08-19T08:35:09;98379.66;;;19.41;100.00
41264;BME280;26998;48.714;9.414;2022-08-19T08:37:36;98377.75;;;19.47;100.00
41264;BME280;26998;48.714;9.414;2022-08-19T08:40:09;98380.50;;;19.57;100.00
41264;BME280;26998;48.714;9.414;2022-08-19T08:42:43;98381.09;;;19.74;100.00
41264;BME280;26998;48.714;9.414;2022-08-19T08:45:12;98379.22;;;19.85;100.00
41264;BME280;26998;48.714;9.414;2022-08-19T08:47:39;98384.34;;;19.97;100.00
41264;BME280;26998;48.714;9.414;2022-08-19T08:50:09;98382.47;;;20.02;100.00
41264;BME280;26998;48.714;9.414;2022-08-19T08:52:43;98385.75;;;20.10;100.00
41264;BME280;26998;48.714;9.414;2022-08-19T08:55:13;98381.13;;;20.10;100.00
41264;BME280;26998;48.714;9.414;2022-08-19T09:00:19;98393.03;;;19.99;100.00
41264;BME280;26998;48.714;9.414;2022-08-19T09:02:46;98397.13;;;19.91;100.00
41264;BME280;26998;48.714;9.414;2022-08-19T09:05:16;98398.47;;;19.89;100.00
41264;BME280;26998;48.714;9.414;2022-08-19T09:11:07;98400.09;;;19.79;100.00
41264;BME280;26998;48.714;9.414;2022-08-19T09:16:16;98419.03;;;19.74;100.00
41264;BME280;26998;48.714;9.414;2022-08-19T09:18:53;98413.91;;;19.73;100.00
41264;BME280;26998;48.714;9.414;2022-08-19T09:21:21;98406.59;;;19.73;100.00
41264;BME280;26998;48.714;9.414;2022-08-19T09:23:55;98416.59;;;19.68;100.00
41264;BME280;26998;48.714;9.414;2022-08-19T09:26:23;98415.25;;;19.70;100.00
41264;BME280;26998;48.714;9.414;2022-08-19T09:29:09;98414.44;;;19.70;100.00
41264;BME280;26998;48.714;9.414;2022-08-19T09:31:36;98424.19;;;19.71;100.00
41264;BME280;26998;48.714;9.414;2022-08-19T09:34:02;98420.13;;;19.73;100.00
41264;BME280;26998;48.714;9.414;2022-08-19T09:36:31;98424.47;;;19.74;100.00
41264;BME280;26998;48.714;9.414;2022-08-19T09:39:00;98411.94;;;19.58;100.00
41264;BME280;26998;48.714;9.414;2022-08-19T09:41:27;98424.94;;;19.51;100.00
41264;BME280;26998;48.714;9.414;2022-08-19T09:43:55;98427.66;;;19.56;100.00
41264;BME280;26998;48.714;9.414;2022-08-19T09:46:23;98421.66;;;19.49;100.00
41264;BME280;26998;48.714;9.414;2022-08-19T09:48:50;98424.34;;;19.44;100.00
41264;BME280;26998;48.714;9.414;2022-08-19T09:51:18;98428.13;;;19.37;100.00
41264;BME280;26998;48.714;9.414;2022-08-19T09:53:47;98427.03;;;19.33;100.00
41264;BME280;26998;48.714;9.414;2022-08-19T09:56:18;98427.84;;;19.29;100.00
41264;BME280;26998;48.714;9.414;2022-08-19T09:58:45;98425.13;;;19.29;100.00
41264;BME280;26998;48.714;9.414;2022-08-19T10:01:16;98425.94;;;19.29;100.00
41264;BME280;26998;48.714;9.414;2022-08-19T10:03:43;98423.25;;;19.29;100.00
41264;BME280;26998;48.714;9.414;2022-08-19T10:06:09;98421.63;;;19.33;100.00
41264;BME280;26998;48.714;9.414;2022-08-19T10:08:42;98434.59;;;19.31;100.00
41264;BME280;26998;48.714;9.414;2022-08-19T10:11:15;98430.56;;;19.34;100.00
41264;BME280;26998;48.714;9.414;2022-08-19T10:13:54;98439.78;;;19.33;100.00
41264;BME280;26998;48.714;9.414;2022-08-19T10:16:20;98438.44;;;19.35;100.00
41264;BME280;26998;48.714;9.414;2022-08-19T10:18:51;98437.38;;;19.42;100.00
41264;BME280;26998;48.714;9.414;2022-08-19T10:21:25;98434.41;;;19.48;100.00
41264;BME280;26998;48.714;9.414;2022-08-19T10:23:54;98430.88;;;19.43;100.00
41264;BME280;26998;48.714;9.414;2022-08-19T10:26:22;98434.13;;;19.50;100.00
41264;BME280;26998;48.714;9.414;2022-08-19T10:28:51;98434.38;;;19.43;100.00
41264;BME280;26998;48.714;9.414;2022-08-19T10:31:20;98436.53;;;19.36;100.00
41264;BME280;26998;48.714;9.414;2022-08-19T10:34:07;98430.84;;;19.37;100.00
41264;BME280;26998;48.714;9.414;2022-08-19T10:36:37;98430.91;;;19.58;100.00
41264;BME280;26998;48.714;9.414;2022-08-19T10:39:21;98427.72;;;19.71;100.00
41264;BME280;26998;48.714;9.414;2022-08-19T10:41:48;98432.06;;;19.72;100.00
41264;BME280;26998;48.714;9.414;2022-08-19T10:44:15;98437.16;;;19.64;100.00
41264;BME280;26998;48.714;9.414;2022-08-19T10:46:41;98437.69;;;19.55;100.00
41264;BME280;26998;48.714;9.414;2022-08-19T10:49:13;98440.66;;;19.54;100.00
41264;BME280;26998;48.714;9.414;2022-08-19T10:51:42;98446.38;;;19.57;100.00
41264;BME280;26998;48.714;9.414;2022-08-19T10:54:14;98443.69;;;19.63;100.00
41264;BME280;26998;48.714;9.414;2022-08-19T10:56:40;98434.72;;;19.57;100.00
41264;BME280;26998;48.714;9.414;2022-08-19T10:59:07;98441.41;;;19.39;100.00
41264;BME280;26998;48.714;9.414;2022-08-19T11:01:34;98442.22;;;19.39;100.00
41264;BME280;26998;48.714;9.414;2022-08-19T11:04:01;98439.25;;;19.36;100.00
41264;BME280;26998;48.714;9.414;2022-08-19T11:06:28;98438.69;;;19.29;100.00
41264;BME280;26998;48.714;9.414;2022-08-19T11:08:55;98444.41;;;19.43;100.00
41264;BME280;26998;48.714;9.414;2022-08-19T11:11:21;98447.19;;;19.58;100.00
41264;BME280;26998;48.714;9.414;2022-08-19T11:13:49;98441.19;;;19.56;100.00
41264;BME280;26998;48.714;9.414;2022-08-19T11:16:17;98439.25;;;19.36;100.00
41264;BME280;26998;48.714;9.414;2022-08-19T11:18:45;98431.13;;;19.36;100.00
41264;BME280;26998;48.714;9.414;2022-08-19T11:21:14;98435.75;;;19.46;100.00
41264;BME280;26998;48.714;9.414;2022-08-19T11:23:41;98437.88;;;19.28;100.00
41264;BME280;26998;48.714;9.414;2022-08-19T11:26:07;98436.44;;;19.15;100.00
41264;BME280;26998;48.714;9.414;2022-08-19T11:28:33;98444.38;;;19.32;100.00
41264;BME280;26998;48.714;9.414;2022-08-19T11:31:00;98438.97;;;19.37;100.00
41264;BME280;26998;48.714;9.414;2022-08-19T11:33:26;98440.38;;;19.45;100.00
41264;BME280;26998;48.714;9.414;2022-08-19T11:35:53;98434.72;;;19.57;100.00
41264;BME280;26998;48.714;9.414;2022-08-19T11:38:20;98443.13;;;19.60;100.00
41264;BME280;26998;48.714;9.414;2022-08-19T11:40:53;98431.50;;;19.65;100.00
41264;BME280;26998;48.714;9.414;2022-08-19T11:43:19;98442.84;;;19.62;100.00
41264;BME280;26998;48.714;9.414;2022-08-19T11:45:46;98436.34;;;19.63;100.00
41264;BME280;26998;48.714;9.414;2022-08-19T11:48:13;98441.81;;;19.68;100.00
41264;BME280;26998;48.714;9.414;2022-08-19T11:50:40;98435.81;;;19.61;100.00
41264;BME280;26998;48.714;9.414;2022-08-19T11:53:06;98444.50;;;19.63;100.00
41264;BME280;26998;48.714;9.414;2022-08-19T11:55:37;98446.94;;;19.65;100.00
41264;BME280;26998;48.714;9.414;2022-08-19T11:58:09;98447.19;;;19.63;100.00
41264;BME280;26998;48.714;9.414;2022-08-19T12:00:44;98446.16;;;19.64;100.00
41264;BME280;26998;48.714;9.414;2022-08-19T12:03:12;98443.09;;;19.50;100.00
41264;BME280;26998;48.714;9.414;2022-08-19T12:05:38;98442.50;;;19.43;100.00
41264;BME280;26998;48.714;9.414;2022-08-19T12:08:06;98452.56;;;19.53;100.00
41264;BME280;26998;48.714;9.414;2022-08-19T12:10:33;98444.72;;;19.51;100.00
41264;BME280;26998;48.714;9.414;2022-08-19T12:12:59;98442.22;;;19.39;100.00
41264;BME280;26998;48.714;9.414;2022-08-19T12:15:26;98443.84;;;19.35;100.00
41264;BME280;26998;48.714;9.414;2022-08-19T12:17:58;98452.75;;;19.31;100.00
41264;BME280;26998;48.714;9.414;2022-08-19T12:20:25;98453.00;;;19.19;100.00
41264;BME280;26998;48.714;9.414;2022-08-19T12:22:51;98454.06;;;19.18;100.00
41264;BME280;26998;48.714;9.414;2022-08-19T12:25:18;98449.66;;;19.02;100.00
41264;BME280;26998;48.714;9.414;2022-08-19T12:27:47;98454.59;;;19.10;100.00
41264;BME280;26998;48.714;9.414;2022-08-19T12:30:22;98461.28;;;18.97;100.00
41264;BME280;26998;48.714;9.414;2022-08-19T12:32:48;98457.81;;;19.07;100.00
41264;BME280;26998;48.714;9.414;2022-08-19T12:35:15;98458.09;;;19.10;100.00
41264;BME280;26998;48.714;9.414;2022-08-19T12:37:42;98452.56;;;18.90;100.00
41264;BME280;26998;48.714;9.414;2022-08-19T15:40:12;98470.41;;;19.38;100.00
41264;BME280;26998;48.714;9.414;2022-08-19T15:42:39;98472.28;;;19.33;100.00
41264;BME280;26998;48.714;9.414;2022-08-19T15:45:06;98473.09;;;19.33;100.00
41264;BME280;26998;48.714;9.414;2022-08-19T15:47:33;98476.16;;;19.47;100.00
41264;BME280;26998;48.714;9.414;2022-08-19T15:50:04;98468.84;;;19.53;100.00
41264;BME280;26998;48.714;9.414;2022-08-19T15:52:35;98466.06;;;19.32;100.00
41264;BME280;26998;48.714;9.414;2022-08-19T15:55:07;98472.03;;;19.39;100.00
41264;BME280;26998;48.714;9.414;2022-08-19T15:57:41;98477.19;;;19.36;100.00
41264;BME280;26998;48.714;9.414;2022-08-19T16:00:07;98477.44;;;19.34;100.00
41264;BME280;26998;48.714;9.414;2022-08-19T16:02:36;98479.41;;;19.44;100.00
41264;BME280;26998;48.714;9.414;2022-08-19T16:05:04;98490.22;;;19.44;100.00
41264;BME280;26998;48.714;9.414;2022-08-19T16:07:32;98489.34;;;19.33;100.00